Historique des mesures à Cassis (13260), France
Quotidien Résumé Fevrier 14, 2018 Unités:  Métrique    US   Métrique/US
« Précédent (Jour)
Suivant (Jour) »
Quotidien Hebdomadaire Mensuel Annuel Période au choix
  Maximum: Minimum: Moyenne:
Température: TemperatureC °C 4.9 °C 7.2 °C
Point de rosée: DewpointC °C -5.0 °C -1.4 °C
Humidité: Humidity % 47 % 51 %
Vitesse du vent: 0 km/h 0 km/h 13.5 km/h
Rafales: 0 km/h - -
Vent:- - WSW
Pression: PressurehPa hPa 1007.7 hPa -
Précipitations: 0.0 mm    
Historical Graphs
 
 
Mesures pour : Fevrier 14, 2018
Heure Temperature Point de rosée Pression Vent Vitesse du vent Rafales Humidité Pluie (par heure) Conditions
TemperatureC °C DewpointC °C PressurehPa hPa Calm     Humidity % HourlyPrecipMM mm SoftwareType W/m2
00:12 4.9 °C -5.0 °C 1008.7 hPa Calm     49 % 0.0 mm open2300-1.11 W/m2
01:12 5.8 °C -3.8 °C 1008.4 hPa Calm     50 % 0.0 mm open2300-1.11 W/m2
02:12 5.4 °C -3.4 °C 1008.4 hPa NW 5.1 km/h 5.1 km/h 53 % 0.0 mm open2300-1.11 W/m2
03:12 5.9 °C -1.6 °C 1008.4 hPa NW 10.9 km/h 14 km/h 59 % 0.0 mm open2300-1.11 W/m2
04:12 5.6 °C -0.9 °C 1007.7 hPa NW 23 km/h 23 km/h 63 % 0.0 mm open2300-1.11 W/m2
05:12 5.4 °C -0.7 °C 1008.4 hPa WNW 41.7 km/h 41.7 km/h 65 % 0.0 mm open2300-1.11 W/m2
06:12 5.8 °C -1.2 °C 1009.0 hPa NNW 13.2 km/h 41.2 km/h 61 % 0.0 mm open2300-1.11 W/m2
07:12 5.6 °C -1.8 °C 1009.4 hPa North 12.7 km/h 33.2 km/h 59 % 0.0 mm open2300-1.11 W/m2
08:12 5.9 °C -2.5 °C 1010.0 hPa NNW 37 km/h 49.2 km/h 55 % 0.0 mm open2300-1.11 W/m2
09:12 6.6 °C -2.3 °C 1010.7 hPa NW 20.9 km/h 20.9 km/h 53 % 0.0 mm open2300-1.11 W/m2
11:12 8.3 °C -1.3 °C 1012.1 hPa West 37 km/h 37 km/h 51 % 0.0 mm open2300-1.11 W/m2
12:12 9.1 °C -1.1 °C 1012.1 hPa NNE 23.8 km/h 24.8 km/h 49 % 0.0 mm open2300-1.11 W/m2
13:12 9.8 °C -0.1 °C 1011.7 hPa NW 27.7 km/h 27.7 km/h 50 % 0.0 mm open2300-1.11 W/m2
14:12 10.1 °C -0.4 °C 1012.1 hPa North 5.6 km/h 12.7 km/h 48 % 0.0 mm open2300-1.11 W/m2
15:12 10.8 °C -0.1 °C 1012.1 hPa Calm   23.8 km/h 47 % 0.0 mm open2300-1.11 W/m2
16:12 10.2 °C -0.3 °C 1012.1 hPa WNW 30.7 km/h 31.9 km/h 48 % 0.0 mm open2300-1.11 W/m2
17:12 9.8 °C -0.4 °C 1012.4 hPa WNW 16.3 km/h 19.6 km/h 49 % 0.0 mm open2300-1.11 W/m2
18:12 9.1 °C -0.6 °C 1012.8 hPa Calm     51 % 0.0 mm open2300-1.11 W/m2
19:12 8.4 °C -1.2 °C 1013.4 hPa Calm     51 % 0.0 mm open2300-1.11 W/m2
20:12 8.2 °C -1.1 °C 1013.8 hPa West 9.3 km/h 9.3 km/h 52 % 0.0 mm open2300-1.11 W/m2
21:12 7.9 °C -0.6 °C 1014.1 hPa Calm   3.4 km/h 55 % 0.0 mm open2300-1.11 W/m2
22:12 7.5 °C -1.0 °C 1014.8 hPa NW 4.2 km/h 7.6 km/h 55 % 0.0 mm open2300-1.11 W/m2
23:12 7.2 °C -1.3 °C 1014.4 hPa NW 4.7 km/h 8.9 km/h 55 % 0.0 mm open2300-1.11 W/m2
Observations météo à CASSIS
WU-History script by Weather Underground - 1 mb